sensor_id;sensor_type;location;lat;lon;timestamp;pressure;altitude;pressure_sealevel;temperature;humidity
59417;BME280;45222;52.458;20.914;2022-09-09T00:01:40;100539.14;;;12.15;76.85
59417;BME280;45222;52.458;20.914;2022-09-09T00:04:51;100538.05;;;12.12;77.08
59417;BME280;45222;52.458;20.914;2022-09-09T00:07:59;100541.38;;;12.06;77.85
59417;BME280;45222;52.458;20.914;2022-09-09T00:11:05;100543.47;;;11.96;80.17
59417;BME280;45222;52.458;20.914;2022-09-09T00:14:16;100543.63;;;11.86;79.39
59417;BME280;45222;52.458;20.914;2022-09-09T00:17:33;100542.25;;;11.82;80.14
59417;BME280;45222;52.458;20.914;2022-09-09T00:20:41;100544.86;;;11.76;80.53
59417;BME280;45222;52.458;20.914;2022-09-09T00:23:51;100537.95;;;11.71;80.65
59417;BME280;45222;52.458;20.914;2022-09-09T00:27:00;100537.09;;;11.67;80.70
59417;BME280;45222;52.458;20.914;2022-09-09T00:30:15;100531.52;;;11.65;81.86
59417;BME280;45222;52.458;20.914;2022-09-09T00:33:24;100525.97;;;11.62;81.76
59417;BME280;45222;52.458;20.914;2022-09-09T00:36:27;100523.45;;;11.62;81.44
59417;BME280;45222;52.458;20.914;2022-09-09T00:39:32;100518.86;;;11.65;80.62
59417;BME280;45222;52.458;20.914;2022-09-09T00:42:42;100522.91;;;11.66;80.81
59417;BME280;45222;52.458;20.914;2022-09-09T00:46:16;100520.99;;;11.65;80.32
59417;BME280;45222;52.458;20.914;2022-09-09T00:49:35;100518.63;;;11.63;81.47
59417;BME280;45222;52.458;20.914;2022-09-09T00:52:46;100515.29;;;11.62;81.63
59417;BME280;45222;52.458;20.914;2022-09-09T00:55:56;100513.53;;;11.61;82.59
59417;BME280;45222;52.458;20.914;2022-09-09T00:59:15;100511.73;;;11.58;82.93
59417;BME280;45222;52.458;20.914;2022-09-09T01:02:27;100506.29;;;11.53;82.33
59417;BME280;45222;52.458;20.914;2022-09-09T01:05:39;100505.49;;;11.51;82.85
59417;BME280;45222;52.458;20.914;2022-09-09T01:08:58;100512.73;;;11.52;82.55
59417;BME280;45222;52.458;20.914;2022-09-09T01:12:11;100508.19;;;11.54;82.57
59417;BME280;45222;52.458;20.914;2022-09-09T01:15:19;100501.94;;;11.54;83.40
59417;BME280;45222;52.458;20.914;2022-09-09T01:18:27;100504.52;;;11.53;82.97
59417;BME280;45222;52.458;20.914;2022-09-09T01:21:38;100506.20;;;11.51;83.30
59417;BME280;45222;52.458;20.914;2022-09-09T01:25:01;100501.22;;;11.51;83.36
59417;BME280;45222;52.458;20.914;2022-09-09T01:28:09;100503.27;;;11.52;82.99
59417;BME280;45222;52.458;20.914;2022-09-09T01:31:17;100505.11;;;11.55;83.47
59417;BME280;45222;52.458;20.914;2022-09-09T01:34:48;100505.67;;;11.58;83.74
59417;BME280;45222;52.458;20.914;2022-09-09T01:37:52;100508.07;;;11.60;83.78
59417;BME280;45222;52.458;20.914;2022-09-09T01:40:54;100507.15;;;11.61;83.32
59417;BME280;45222;52.458;20.914;2022-09-09T01:43:57;100510.24;;;11.63;83.65
59417;BME280;45222;52.458;20.914;2022-09-09T01:47:00;100511.17;;;11.66;83.77
59417;BME280;45222;52.458;20.914;2022-09-09T01:50:03;100507.98;;;11.69;83.49
59417;BME280;45222;52.458;20.914;2022-09-09T01:53:06;100500.83;;;11.73;84.12
59417;BME280;45222;52.458;20.914;2022-09-09T01:56:20;100495.61;;;11.77;83.98
59417;BME280;45222;52.458;20.914;2022-09-09T01:59:40;100491.62;;;11.75;84.31
59417;BME280;45222;52.458;20.914;2022-09-09T02:02:52;100498.45;;;11.74;84.07
59417;BME280;45222;52.458;20.914;2022-09-09T02:06:05;100497.16;;;11.75;84.40
59417;BME280;45222;52.458;20.914;2022-09-09T02:09:13;100495.63;;;11.74;83.49
59417;BME280;45222;52.458;20.914;2022-09-09T02:12:19;100492.01;;;11.75;84.29
59417;BME280;45222;52.458;20.914;2022-09-09T02:15:30;100496.18;;;11.73;84.48
59417;BME280;45222;52.458;20.914;2022-09-09T02:18:37;100500.09;;;11.73;84.23
59417;BME280;45222;52.458;20.914;2022-09-09T02:21:44;100507.10;;;11.76;84.06
59417;BME280;45222;52.458;20.914;2022-09-09T02:24:49;100504.55;;;11.77;84.58
59417;BME280;45222;52.458;20.914;2022-09-09T02:27:54;100497.91;;;11.77;85.25
59417;BME280;45222;52.458;20.914;2022-09-09T02:30:57;100492.92;;;11.77;85.02
59417;BME280;45222;52.458;20.914;2022-09-09T02:34:02;100490.80;;;11.80;84.68
59417;BME280;45222;52.458;20.914;2022-09-09T02:37:07;100485.09;;;11.85;85.30
59417;BME280;45222;52.458;20.914;2022-09-09T02:40:13;100480.10;;;11.88;84.54
59417;BME280;45222;52.458;20.914;2022-09-09T02:43:17;100487.65;;;11.90;84.30
59417;BME280;45222;52.458;20.914;2022-09-09T02:46:34;100488.04;;;11.93;84.02
59417;BME280;45222;52.458;20.914;2022-09-09T02:49:43;100492.73;;;11.95;84.38
59417;BME280;45222;52.458;20.914;2022-09-09T02:53:02;100491.98;;;11.96;84.09
59417;BME280;45222;52.458;20.914;2022-09-09T02:56:13;100494.41;;;11.97;83.95
59417;BME280;45222;52.458;20.914;2022-09-09T02:59:17;100498.02;;;12.00;84.31
59417;BME280;45222;52.458;20.914;2022-09-09T03:02:20;100495.18;;;11.99;84.57
59417;BME280;45222;52.458;20.914;2022-09-09T03:05:23;100503.34;;;11.97;84.34
59417;BME280;45222;52.458;20.914;2022-09-09T03:08:26;100504.48;;;11.96;84.66
59417;BME280;45222;52.458;20.914;2022-09-09T03:11:29;100504.36;;;11.94;85.67
59417;BME280;45222;52.458;20.914;2022-09-09T03:14:32;100506.20;;;11.93;85.34
59417;BME280;45222;52.458;20.914;2022-09-09T03:17:35;100508.48;;;11.94;85.01
59417;BME280;45222;52.458;20.914;2022-09-09T03:20:45;100505.37;;;11.95;84.86
59417;BME280;45222;52.458;20.914;2022-09-09T03:23:56;100501.68;;;11.94;84.86
59417;BME280;45222;52.458;20.914;2022-09-09T03:27:04;100493.48;;;11.94;84.93
59417;BME280;45222;52.458;20.914;2022-09-09T03:30:08;100491.02;;;11.94;85.24
59417;BME280;45222;52.458;20.914;2022-09-09T03:33:11;100488.33;;;11.94;85.13
59417;BME280;45222;52.458;20.914;2022-09-09T03:36:14;100489.23;;;11.94;85.08
59417;BME280;45222;52.458;20.914;2022-09-09T03:39:17;100486.75;;;11.94;85.35
59417;BME280;45222;52.458;20.914;2022-09-09T03:42:19;100490.19;;;11.93;85.39
59417;BME280;45222;52.458;20.914;2022-09-09T03:45:22;100492.15;;;11.93;84.87
59417;BME280;45222;52.458;20.914;2022-09-09T03:48:26;100493.79;;;11.95;84.81
59417;BME280;45222;52.458;20.914;2022-09-09T03:51:33;100492.61;;;11.98;85.17
59417;BME280;45222;52.458;20.914;2022-09-09T03:54:38;100491.59;;;12.00;85.13
59417;BME280;45222;52.458;20.914;2022-09-09T03:57:41;100490.53;;;12.03;85.42
59417;BME280;45222;52.458;20.914;2022-09-09T04:00:54;100485.66;;;12.04;84.98
59417;BME280;45222;52.458;20.914;2022-09-09T04:04:08;100488.55;;;12.04;85.61
59417;BME280;45222;52.458;20.914;2022-09-09T04:07:25;100492.42;;;12.05;85.11
59417;BME280;45222;52.458;20.914;2022-09-09T04:10:37;100494.87;;;12.10;85.22
59417;BME280;45222;52.458;20.914;2022-09-09T04:13:47;100497.90;;;12.13;85.21
59417;BME280;45222;52.458;20.914;2022-09-09T04:16:49;100498.65;;;12.16;85.56
59417;BME280;45222;52.458;20.914;2022-09-09T04:19:52;100502.92;;;12.16;85.39
59417;BME280;45222;52.458;20.914;2022-09-09T04:22:55;100496.09;;;12.13;85.30
59417;BME280;45222;52.458;20.914;2022-09-09T04:25:59;100493.02;;;12.11;85.30
59417;BME280;45222;52.458;20.914;2022-09-09T04:29:02;100488.41;;;12.10;85.17
59417;BME280;45222;52.458;20.914;2022-09-09T04:32:05;100488.17;;;12.08;85.40
59417;BME280;45222;52.458;20.914;2022-09-09T04:35:08;100487.79;;;12.09;85.75
59417;BME280;45222;52.458;20.914;2022-09-09T04:38:11;100485.95;;;12.10;85.99
59417;BME280;45222;52.458;20.914;2022-09-09T04:41:14;100491.30;;;12.10;85.83
59417;BME280;45222;52.458;20.914;2022-09-09T04:44:18;100492.60;;;12.12;85.66
59417;BME280;45222;52.458;20.914;2022-09-09T04:47:21;100491.74;;;12.12;85.43
59417;BME280;45222;52.458;20.914;2022-09-09T04:50:23;100495.43;;;12.12;85.56
59417;BME280;45222;52.458;20.914;2022-09-09T04:53:27;100498.96;;;12.16;85.81
59417;BME280;45222;52.458;20.914;2022-09-09T04:56:30;100502.48;;;12.17;85.78
59417;BME280;45222;52.458;20.914;2022-09-09T04:59:32;100502.47;;;12.17;85.88
59417;BME280;45222;52.458;20.914;2022-09-09T05:02:38;100504.42;;;12.17;86.18
59417;BME280;45222;52.458;20.914;2022-09-09T05:05:40;100508.84;;;12.15;86.35
59417;BME280;45222;52.458;20.914;2022-09-09T05:08:44;100504.92;;;12.12;86.59
59417;BME280;45222;52.458;20.914;2022-09-09T05:11:47;100508.66;;;12.12;86.28
59417;BME280;45222;52.458;20.914;2022-09-09T05:14:50;100513.36;;;12.14;86.18
59417;BME280;45222;52.458;20.914;2022-09-09T05:17:57;100507.54;;;12.16;86.38
59417;BME280;45222;52.458;20.914;2022-09-09T05:21:01;100507.49;;;12.20;86.73
59417;BME280;45222;52.458;20.914;2022-09-09T05:24:04;100506.46;;;12.23;86.34
59417;BME280;45222;52.458;20.914;2022-09-09T05:27:07;100506.65;;;12.26;86.53
59417;BME280;45222;52.458;20.914;2022-09-09T05:30:11;100507.71;;;12.26;86.21
59417;BME280;45222;52.458;20.914;2022-09-09T05:33:14;100512.13;;;12.27;85.79
59417;BME280;45222;52.458;20.914;2022-09-09T05:36:18;100514.02;;;12.31;85.85
59417;BME280;45222;52.458;20.914;2022-09-09T05:39:21;100513.25;;;12.33;85.82
59417;BME280;45222;52.458;20.914;2022-09-09T05:42:24;100511.94;;;12.34;85.81
59417;BME280;45222;52.458;20.914;2022-09-09T05:45:27;100515.46;;;12.34;86.10
59417;BME280;45222;52.458;20.914;2022-09-09T05:48:30;100517.34;;;12.37;86.27
59417;BME280;45222;52.458;20.914;2022-09-09T05:51:34;100515.77;;;12.32;86.63
59417;BME280;45222;52.458;20.914;2022-09-09T05:54:36;100515.84;;;12.31;86.49
59417;BME280;45222;52.458;20.914;2022-09-09T05:57:39;100511.36;;;12.31;86.51
59417;BME280;45222;52.458;20.914;2022-09-09T06:00:41;100516.36;;;12.34;86.41
59417;BME280;45222;52.458;20.914;2022-09-09T06:03:47;100519.50;;;12.40;86.40
59417;BME280;45222;52.458;20.914;2022-09-09T06:06:50;100518.02;;;12.44;86.50
59417;BME280;45222;52.458;20.914;2022-09-09T06:09:52;100520.17;;;12.47;86.49
59417;BME280;45222;52.458;20.914;2022-09-09T06:12:55;100520.59;;;12.49;86.63
59417;BME280;45222;52.458;20.914;2022-09-09T06:15:58;100522.15;;;12.50;86.45
59417;BME280;45222;52.458;20.914;2022-09-09T06:19:02;100525.04;;;12.52;86.39
59417;BME280;45222;52.458;20.914;2022-09-09T06:22:06;100531.65;;;12.59;86.38
59417;BME280;45222;52.458;20.914;2022-09-09T06:25:09;100531.45;;;12.63;86.17
59417;BME280;45222;52.458;20.914;2022-09-09T06:28:12;100536.48;;;12.65;86.19
59417;BME280;45222;52.458;20.914;2022-09-09T06:31:17;100537.19;;;12.69;86.50
59417;BME280;45222;52.458;20.914;2022-09-09T06:34:23;100538.80;;;12.75;86.41
59417;BME280;45222;52.458;20.914;2022-09-09T06:37:26;100539.13;;;12.79;86.09
59417;BME280;45222;52.458;20.914;2022-09-09T06:40:29;100543.88;;;12.80;86.30
59417;BME280;45222;52.458;20.914;2022-09-09T06:43:32;100536.79;;;12.82;85.84
59417;BME280;45222;52.458;20.914;2022-09-09T06:46:35;100539.19;;;12.84;86.10
59417;BME280;45222;52.458;20.914;2022-09-09T06:49:38;100544.10;;;12.86;86.34
59417;BME280;45222;52.458;20.914;2022-09-09T06:52:41;100549.70;;;12.88;86.03
59417;BME280;45222;52.458;20.914;2022-09-09T06:55:43;100550.92;;;12.88;85.93
59417;BME280;45222;52.458;20.914;2022-09-09T06:58:47;100549.45;;;12.89;85.93
59417;BME280;45222;52.458;20.914;2022-09-09T07:01:51;100545.94;;;12.92;86.18
59417;BME280;45222;52.458;20.914;2022-09-09T07:04:55;100548.49;;;12.94;86.08
59417;BME280;45222;52.458;20.914;2022-09-09T07:07:59;100550.02;;;12.98;85.88
59417;BME280;45222;52.458;20.914;2022-09-09T07:11:07;100552.95;;;13.00;86.06
59417;BME280;45222;52.458;20.914;2022-09-09T07:14:10;100559.41;;;12.99;85.54
59417;BME280;45222;52.458;20.914;2022-09-09T07:17:14;100564.44;;;12.96;85.72
59417;BME280;45222;52.458;20.914;2022-09-09T07:20:17;100559.42;;;12.93;85.75
59417;BME280;45222;52.458;20.914;2022-09-09T07:23:20;100561.35;;;12.90;85.95
59417;BME280;45222;52.458;20.914;2022-09-09T07:26:24;100564.29;;;12.92;86.13
59417;BME280;45222;52.458;20.914;2022-09-09T07:29:27;100567.16;;;12.95;86.36
59417;BME280;45222;52.458;20.914;2022-09-09T07:32:30;100569.34;;;12.98;86.37
59417;BME280;45222;52.458;20.914;2022-09-09T07:35:32;100572.83;;;12.99;86.07
59417;BME280;45222;52.458;20.914;2022-09-09T07:38:39;100573.98;;;12.97;86.07
59417;BME280;45222;52.458;20.914;2022-09-09T07:41:43;100574.55;;;13.00;86.21
59417;BME280;45222;52.458;20.914;2022-09-09T07:44:46;100579.50;;;13.04;86.12
59417;BME280;45222;52.458;20.914;2022-09-09T07:47:49;100575.77;;;13.04;86.24
59417;BME280;45222;52.458;20.914;2022-09-09T07:50:51;100578.70;;;13.06;86.62
59417;BME280;45222;52.458;20.914;2022-09-09T07:53:56;100581.28;;;13.08;86.56
59417;BME280;45222;52.458;20.914;2022-09-09T07:56:59;100579.84;;;13.11;86.13
59417;BME280;45222;52.458;20.914;2022-09-09T08:00:04;100581.60;;;13.15;86.36
59417;BME280;45222;52.458;20.914;2022-09-09T08:03:07;100583.48;;;13.23;86.69
59417;BME280;45222;52.458;20.914;2022-09-09T08:06:10;100583.26;;;13.33;86.41
59417;BME280;45222;52.458;20.914;2022-09-09T08:09:14;100579.17;;;13.42;86.27
59417;BME280;45222;52.458;20.914;2022-09-09T08:12:17;100588.73;;;13.48;86.15
59417;BME280;45222;52.458;20.914;2022-09-09T08:15:20;100590.45;;;13.49;85.91
59417;BME280;45222;52.458;20.914;2022-09-09T08:18:23;100593.15;;;13.51;86.08
59417;BME280;45222;52.458;20.914;2022-09-09T08:21:27;100596.25;;;13.53;86.06
59417;BME280;45222;52.458;20.914;2022-09-09T08:24:30;100594.17;;;13.59;86.09
59417;BME280;45222;52.458;20.914;2022-09-09T08:27:33;100605.10;;;13.67;85.87
59417;BME280;45222;52.458;20.914;2022-09-09T08:30:36;100608.02;;;13.70;85.42
59417;BME280;45222;52.458;20.914;2022-09-09T08:33:40;100608.56;;;13.72;85.21
59417;BME280;45222;52.458;20.914;2022-09-09T08:36:44;100603.67;;;13.77;85.23
59417;BME280;45222;52.458;20.914;2022-09-09T08:39:46;100609.45;;;13.82;85.21
59417;BME280;45222;52.458;20.914;2022-09-09T08:42:55;100617.76;;;13.84;85.19
59417;BME280;45222;52.458;20.914;2022-09-09T08:46:05;100620.86;;;13.83;85.06
59417;BME280;45222;52.458;20.914;2022-09-09T08:49:13;100618.05;;;13.79;84.76
59417;BME280;45222;52.458;20.914;2022-09-09T08:52:23;100620.23;;;13.75;85.12
59417;BME280;45222;52.458;20.914;2022-09-09T08:55:37;100622.14;;;13.76;85.10
59417;BME280;45222;52.458;20.914;2022-09-09T08:58:45;100626.91;;;13.80;85.19
59417;BME280;45222;52.458;20.914;2022-09-09T09:02:02;100626.71;;;13.84;85.02
59417;BME280;45222;52.458;20.914;2022-09-09T09:05:21;100627.37;;;13.87;85.28
59417;BME280;45222;52.458;20.914;2022-09-09T09:08:39;100621.88;;;13.90;85.21
59417;BME280;45222;52.458;20.914;2022-09-09T09:11:51;100623.35;;;13.95;85.09
59417;BME280;45222;52.458;20.914;2022-09-09T09:14:55;100626.36;;;13.96;84.92
59417;BME280;45222;52.458;20.914;2022-09-09T09:18:00;100620.38;;;14.00;85.09
59417;BME280;45222;52.458;20.914;2022-09-09T09:21:08;100623.53;;;14.07;84.87
59417;BME280;45222;52.458;20.914;2022-09-09T09:24:18;100627.43;;;14.14;84.77
59417;BME280;45222;52.458;20.914;2022-09-09T09:27:31;100629.29;;;14.16;84.85
59417;BME280;45222;52.458;20.914;2022-09-09T09:30:38;100621.10;;;14.18;84.70
59417;BME280;45222;52.458;20.914;2022-09-09T09:33:48;100626.95;;;14.21;84.72
59417;BME280;45222;52.458;20.914;2022-09-09T09:36:55;100627.41;;;14.27;84.73
59417;BME280;45222;52.458;20.914;2022-09-09T09:40:09;100630.09;;;14.32;84.36
59417;BME280;45222;52.458;20.914;2022-09-09T09:43:19;100632.07;;;14.35;84.17
59417;BME280;45222;52.458;20.914;2022-09-09T09:46:25;100634.05;;;14.38;84.19
59417;BME280;45222;52.458;20.914;2022-09-09T09:49:28;100634.35;;;14.39;83.93
59417;BME280;45222;52.458;20.914;2022-09-09T09:52:31;100646.17;;;14.39;83.88
59417;BME280;45222;52.458;20.914;2022-09-09T09:55:49;100648.77;;;14.37;83.79
59417;BME280;45222;52.458;20.914;2022-09-09T09:58:52;100646.24;;;14.38;83.84
59417;BME280;45222;52.458;20.914;2022-09-09T10:02:10;100650.69;;;14.41;83.57
59417;BME280;45222;52.458;20.914;2022-09-09T10:05:17;100648.91;;;14.38;83.57
59417;BME280;45222;52.458;20.914;2022-09-09T10:08:21;100650.52;;;14.32;83.92
59417;BME280;45222;52.458;20.914;2022-09-09T10:11:35;100651.77;;;14.32;83.86
59417;BME280;45222;52.458;20.914;2022-09-09T10:14:48;100654.70;;;14.37;84.03
59417;BME280;45222;52.458;20.914;2022-09-09T10:18:00;100650.95;;;14.37;83.88
59417;BME280;45222;52.458;20.914;2022-09-09T10:21:16;100653.64;;;14.31;83.98
59417;BME280;45222;52.458;20.914;2022-09-09T10:24:46;100657.40;;;14.28;83.87
59417;BME280;45222;52.458;20.914;2022-09-09T10:28:06;100659.13;;;14.32;84.05
59417;BME280;45222;52.458;20.914;2022-09-09T10:31:18;100660.34;;;14.32;84.46
59417;BME280;45222;52.458;20.914;2022-09-09T10:34:40;100664.91;;;14.39;84.31
59417;BME280;45222;52.458;20.914;2022-09-09T10:38:14;100673.38;;;14.47;84.24
59417;BME280;45222;52.458;20.914;2022-09-09T10:41:21;100674.14;;;14.46;83.86
59417;BME280;45222;52.458;20.914;2022-09-09T10:44:38;100678.08;;;14.44;83.46
59417;BME280;45222;52.458;20.914;2022-09-09T10:48:09;100684.73;;;14.40;83.71
59417;BME280;45222;52.458;20.914;2022-09-09T10:51:33;100686.09;;;14.35;83.84
59417;BME280;45222;52.458;20.914;2022-09-09T10:54:55;100693.90;;;14.33;84.17
59417;BME280;45222;52.458;20.914;2022-09-09T10:58:03;100696.23;;;14.36;84.27
59417;BME280;45222;52.458;20.914;2022-09-09T11:01:14;100688.23;;;14.45;84.17
59417;BME280;45222;52.458;20.914;2022-09-09T11:04:22;100693.38;;;14.55;84.03
59417;BME280;45222;52.458;20.914;2022-09-09T11:07:29;100699.66;;;14.63;83.85
59417;BME280;45222;52.458;20.914;2022-09-09T11:10:40;100701.20;;;14.67;83.60
59417;BME280;45222;52.458;20.914;2022-09-09T11:13:49;100706.31;;;14.71;83.77
59417;BME280;45222;52.458;20.914;2022-09-09T11:16:59;100707.86;;;14.79;83.64
59417;BME280;45222;52.458;20.914;2022-09-09T11:20:06;100709.02;;;14.84;83.27
59417;BME280;45222;52.458;20.914;2022-09-09T11:23:14;100717.13;;;14.89;83.25
59417;BME280;45222;52.458;20.914;2022-09-09T11:26:30;100716.84;;;14.94;83.12
59417;BME280;45222;52.458;20.914;2022-09-09T11:29:47;100716.96;;;14.94;83.01
59417;BME280;45222;52.458;20.914;2022-09-09T11:33:18;100714.98;;;14.98;83.18
59417;BME280;45222;52.458;20.914;2022-09-09T11:36:52;100709.75;;;15.01;83.12
59417;BME280;45222;52.458;20.914;2022-09-09T11:40:09;100714.64;;;15.06;82.93
59417;BME280;45222;52.458;20.914;2022-09-09T11:43:21;100714.81;;;15.06;82.72
59417;BME280;45222;52.458;20.914;2022-09-09T11:46:34;100711.38;;;15.07;82.69
59417;BME280;45222;52.458;20.914;2022-09-09T11:49:42;100714.70;;;15.02;82.79
59417;BME280;45222;52.458;20.914;2022-09-09T11:52:45;100714.27;;;14.97;82.97
59417;BME280;45222;52.458;20.914;2022-09-09T11:55:59;100718.02;;;15.01;82.76
59417;BME280;45222;52.458;20.914;2022-09-09T11:59:03;100714.61;;;15.04;82.60
59417;BME280;45222;52.458;20.914;2022-09-09T12:02:14;100712.29;;;15.00;82.81
59417;BME280;45222;52.458;20.914;2022-09-09T12:05:21;100709.20;;;14.98;82.70
59417;BME280;45222;52.458;20.914;2022-09-09T12:08:27;100715.61;;;14.93;83.03
59417;BME280;45222;52.458;20.914;2022-09-09T12:11:34;100722.41;;;14.90;83.16
59417;BME280;45222;52.458;20.914;2022-09-09T12:18:35;100728.01;;;14.86;83.06
59417;BME280;45222;52.458;20.914;2022-09-09T12:21:58;100723.91;;;14.89;83.21
59417;BME280;45222;52.458;20.914;2022-09-09T12:25:18;100725.02;;;14.91;83.32
59417;BME280;45222;52.458;20.914;2022-09-09T12:28:33;100724.36;;;14.88;83.21
59417;BME280;45222;52.458;20.914;2022-09-09T12:31:48;100719.84;;;14.82;83.59
59417;BME280;45222;52.458;20.914;2022-09-09T12:34:57;100719.33;;;14.79;83.62
59417;BME280;45222;52.458;20.914;2022-09-09T12:38:03;100724.04;;;14.81;83.62
59417;BME280;45222;52.458;20.914;2022-09-09T12:41:19;100726.17;;;14.81;83.69
59417;BME280;45222;52.458;20.914;2022-09-09T12:44:24;100731.70;;;14.82;83.80
59417;BME280;45222;52.458;20.914;2022-09-09T12:47:33;100734.89;;;14.82;83.76
59417;BME280;45222;52.458;20.914;2022-09-09T12:50:45;100731.20;;;14.84;84.00
59417;BME280;45222;52.458;20.914;2022-09-09T12:53:48;100727.48;;;14.83;83.87
59417;BME280;45222;52.458;20.914;2022-09-09T12:56:52;100730.64;;;14.78;84.00
59417;BME280;45222;52.458;20.914;2022-09-09T13:00:06;100731.14;;;14.73;84.01
59417;BME280;45222;52.458;20.914;2022-09-09T13:03:17;100727.15;;;14.67;84.19
59417;BME280;45222;52.458;20.914;2022-09-09T13:06:22;100716.21;;;14.62;84.47
59417;BME280;45222;52.458;20.914;2022-09-09T13:09:25;100715.25;;;14.63;84.53
59417;BME280;45222;52.458;20.914;2022-09-09T13:12:28;100718.46;;;14.63;84.81
59417;BME280;45222;52.458;20.914;2022-09-09T13:15:31;100718.12;;;14.66;85.02
59417;BME280;45222;52.458;20.914;2022-09-09T13:18:36;100719.52;;;14.69;84.79
59417;BME280;45222;52.458;20.914;2022-09-09T13:21:42;100718.71;;;14.77;84.70
59417;BME280;45222;52.458;20.914;2022-09-09T13:24:45;100713.67;;;14.81;84.52
59417;BME280;45222;52.458;20.914;2022-09-09T13:27:59;100707.82;;;14.80;84.66
59417;BME280;45222;52.458;20.914;2022-09-09T13:31:05;100713.09;;;14.75;84.50
59417;BME280;45222;52.458;20.914;2022-09-09T13:34:28;100713.55;;;14.73;84.23
59417;BME280;45222;52.458;20.914;2022-09-09T13:37:34;100704.22;;;14.74;84.51
59417;BME280;45222;52.458;20.914;2022-09-09T13:40:38;100704.45;;;14.72;84.79
59417;BME280;45222;52.458;20.914;2022-09-09T13:43:44;100697.63;;;14.70;84.78
59417;BME280;45222;52.458;20.914;2022-09-09T13:46:47;100702.38;;;14.66;84.85
59417;BME280;45222;52.458;20.914;2022-09-09T13:49:50;100701.52;;;14.68;84.65
59417;BME280;45222;52.458;20.914;2022-09-09T13:52:54;100706.48;;;14.71;84.66
59417;BME280;45222;52.458;20.914;2022-09-09T13:56:00;100707.47;;;14.73;84.82
59417;BME280;45222;52.458;20.914;2022-09-09T13:59:04;100709.94;;;14.74;84.68
59417;BME280;45222;52.458;20.914;2022-09-09T14:02:08;100710.60;;;14.75;84.88
59417;BME280;45222;52.458;20.914;2022-09-09T14:05:14;100711.23;;;14.76;84.68
59417;BME280;45222;52.458;20.914;2022-09-09T14:08:25;100714.80;;;14.70;84.56
59417;BME280;45222;52.458;20.914;2022-09-09T14:11:28;100722.89;;;14.64;84.73
59417;BME280;45222;52.458;20.914;2022-09-09T14:14:31;100724.17;;;14.57;84.93
59417;BME280;45222;52.458;20.914;2022-09-09T14:17:34;100730.66;;;14.54;85.19
59417;BME280;45222;52.458;20.914;2022-09-09T14:20:38;100732.09;;;14.53;85.18
59417;BME280;45222;52.458;20.914;2022-09-09T14:23:41;100731.16;;;14.54;84.93
59417;BME280;45222;52.458;20.914;2022-09-09T14:26:44;100733.40;;;14.53;84.78
59417;BME280;45222;52.458;20.914;2022-09-09T14:29:47;100733.02;;;14.50;84.93
59417;BME280;45222;52.458;20.914;2022-09-09T14:32:49;100733.66;;;14.48;85.35
59417;BME280;45222;52.458;20.914;2022-09-09T14:35:57;100729.92;;;14.48;85.52
59417;BME280;45222;52.458;20.914;2022-09-09T14:39:00;100727.09;;;14.44;85.86
59417;BME280;45222;52.458;20.914;2022-09-09T14:42:03;100733.09;;;14.45;86.04
59417;BME280;45222;52.458;20.914;2022-09-09T14:45:08;100737.30;;;14.50;86.09
59417;BME280;45222;52.458;20.914;2022-09-09T14:48:11;100737.58;;;14.55;85.82
59417;BME280;45222;52.458;20.914;2022-09-09T14:51:17;100732.73;;;14.58;85.66
59417;BME280;45222;52.458;20.914;2022-09-09T14:54:21;100723.02;;;14.58;85.79
59417;BME280;45222;52.458;20.914;2022-09-09T14:57:25;100718.92;;;14.58;85.74
59417;BME280;45222;52.458;20.914;2022-09-09T15:00:27;100720.05;;;14.57;85.86
59417;BME280;45222;52.458;20.914;2022-09-09T15:03:30;100722.08;;;14.56;86.00
59417;BME280;45222;52.458;20.914;2022-09-09T15:06:35;100726.48;;;14.61;85.99
59417;BME280;45222;52.458;20.914;2022-09-09T15:09:40;100725.13;;;14.65;85.69
59417;BME280;45222;52.458;20.914;2022-09-09T15:12:43;100728.48;;;14.63;85.59
59417;BME280;45222;52.458;20.914;2022-09-09T15:15:45;100730.98;;;14.60;85.47
59417;BME280;45222;52.458;20.914;2022-09-09T15:18:52;100726.58;;;14.56;85.68
59417;BME280;45222;52.458;20.914;2022-09-09T15:21:57;100727.61;;;14.57;85.67
59417;BME280;45222;52.458;20.914;2022-09-09T15:25:02;100729.77;;;14.57;85.95
59417;BME280;45222;52.458;20.914;2022-09-09T15:28:04;100728.21;;;14.56;86.04
59417;BME280;45222;52.458;20.914;2022-09-09T15:31:10;100726.51;;;14.54;85.98
59417;BME280;45222;52.458;20.914;2022-09-09T15:34:13;100729.96;;;14.53;86.05
59417;BME280;45222;52.458;20.914;2022-09-09T15:37:16;100738.02;;;14.47;86.01
59417;BME280;45222;52.458;20.914;2022-09-09T15:40:19;100746.63;;;14.46;85.89
59417;BME280;45222;52.458;20.914;2022-09-09T15:43:22;100747.77;;;14.48;85.83
59417;BME280;45222;52.458;20.914;2022-09-09T15:46:29;100744.22;;;14.51;85.81
59417;BME280;45222;52.458;20.914;2022-09-09T15:49:34;100745.04;;;14.52;85.92
59417;BME280;45222;52.458;20.914;2022-09-09T15:52:36;100751.36;;;14.52;86.05
59417;BME280;45222;52.458;20.914;2022-09-09T15:55:39;100750.59;;;14.49;86.01
59417;BME280;45222;52.458;20.914;2022-09-09T15:58:44;100748.38;;;14.47;86.01
59417;BME280;45222;52.458;20.914;2022-09-09T16:01:50;100739.72;;;14.45;86.00
59417;BME280;45222;52.458;20.914;2022-09-09T16:04:53;100733.61;;;14.46;85.87
59417;BME280;45222;52.458;20.914;2022-09-09T16:07:55;100733.45;;;14.45;86.00
59417;BME280;45222;52.458;20.914;2022-09-09T16:11:05;100725.23;;;14.45;86.25